SBCTSBNF

Guest
Details From SBCT - Afonso Pena
To SBNF - Ministro Victor Konder
Flight Number -
Tags generated
Created
Modified
Stats Distance 86 nm / 159 km
Max Altitude 3,800 ft / 1,158 m
Waypoints 3
Social Downloads 0
Likes 0
Share VATSIM

Download

Looking for another format? Having issues loading an existing format? Contact us
Advertisement - Login to hide

Notes

Basic altitude profile: - Ascent Rate: 2500ft/min - Ascent Speed: 250kts - Cruise Altitude: 35000ft - Cruise Speed: 420kts - Descent Rate: 1500ft/min - Descent Speed: 250kts Options: - Use NATs: yes - Use PACOTS: yes - Use low airways: yes - Use high airways: yes

Route

SBCT PIMBA SBNF

ID Type Via Altitude Latitude Longitude Leg Dist Tot Dist Heading (true) Name
O SBCT APT - 0 ft / 0 m -25.52888˚ -49.17306˚ - 0 nm - Afonso Pena
PIMBA FIX - 3,800 ft / 1,158 m -25.69867˚ -49.11683˚ 10 nm 10 nm 163° / 163° -
O SBNF APT - 0 ft / 0 m -26.88000˚ -48.65139˚ 75 nm 85 nm 161° / 160° Ministro Victor Konder

Altitude Profile

Advertisement - Login to hide

SBCT

Details ICAO SBCT (CWB)
Name Afonso Pena
Region Brazil
Timezone America/Sao_Paulo (UTC-3.0)
Stats Elevation 2,988 ft / 911 m (AMSL)
Location -25.528885° -49.173062°
Runways 2
Magnetic Variation 19.676° W

METAR

SBCT 271000Z 36003KT 9999 BKN011 13/13 Q1026

Decode

TAF

TAF SBCT 270300Z 2706/2806 08004KT 9999 BKN008 TN10/2709Z TX20/2718Z PROB30 2708/2711 0600 FG OVC002 BECMG 2711/2713 05007KT SCT012 BKN020 BECMG 2713/2715 BKN025 BECMG 2715/2717 SCT030 BECMG 2719/2721 10005KT SCT012 BKN020 BECMG 2721/2723 BKN008 RMK PDJ

Decode

Departure Runways

ID Width Length Bearing (true) Bearing (mag) Surface Threshold Offset Overrun Length
11 148 ft / 45 m 5,909 ft / 1,801 m 91.79° 111.47° Asphalt 0 ft / 0 m 0 ft / 0 m
15 148 ft / 45 m 7,290 ft / 2,222 m 134.76° 154.44° Asphalt 0 ft / 0 m 190 ft / 58 m
29 148 ft / 45 m 5,909 ft / 1,801 m 271.78° 291.46° Asphalt 0 ft / 0 m 0 ft / 0 m
33 148 ft / 45 m 7,290 ft / 2,222 m 314.75° 334.43° Asphalt 0 ft / 0 m 185 ft / 56 m

SBNF

Details ICAO SBNF (NVT)
Name Ministro Victor Konder
Region Brazil
Timezone America/Sao_Paulo (UTC-3.0)
Stats Elevation 18 ft / 5 m (AMSL)
Location -26.879998° -48.651387°
Runways 1
Magnetic Variation 19.575° W

METAR

SBNF 271000Z 25006KT 9999 FEW040 16/15 Q1023

Decode

TAF

TAF SBNF 270300Z 2706/2806 25004KT 9999 SCT030 TN15/2708Z TX25/2718Z PROB40 2708/2711 3000 BR BKN010 BECMG 2712/2714 05007KT SCT040 BECMG 2800/2802 25005KT BKN030 RMK PDJ

Decode

Destination Runways

ID Width Length Bearing (true) Bearing (mag) Surface Threshold Offset Overrun Length
07 148 ft / 45 m 5,580 ft / 1,701 m 54.86° 74.43° Asphalt 0 ft / 0 m 190 ft / 58 m
25 148 ft / 45 m 5,580 ft / 1,701 m 234.85° 254.42° Asphalt 0 ft / 0 m 195 ft / 59 m

Popular Alternatives